Arcola, Virginia
Current Conditions -  °F | °C
As of 12:52 AM on Wednesday 22 Oct 2014 (Local Time) from KIAD Reporting Station
Broken Clouds Broken Clouds  
Wind Chill: 51°   Ceiling: 6000
Heat Index: 51°   Visibility: 10mi
Dew Point: 49°   Wind: 8mph
Humidity: 92%   Direction: 330°NNW
Pressure: 29.9"   Gusts: NA
Location:  38.95°N, 77.53°W
Report Text: KIAD 220452Z 33007KT 10SM SCT045 BKN060 BKN130 11/09 A2990 RMK AO2 RAE0358 SLP124 P0000 T01060094 402000061
Loading
Personal Weather Stations






























Interactive Weather Map New forecast layout! Learn more

10-Day Weather Forecast

Advertisements
Track Severe Weather on mobile